Weather History for Storm Lake, IA

Change the Weather History Date:

Saturday, November 24, 2012

  Actual Average Record
Temperature  
Mean Temperature 24 °F -  
Max Temperature 37 °F 40 °F 62 °F (2011)
Min Temperature 12 °F 25 °F 5 °F (2013)
Degree Days  
Heating Degree Days 40    
Moisture  
Dew Point 15 °F    
Average Humidity 62    
Maximum Humidity 86    
Minimum Humidity 41    
Precipitation  
Precipitation 0.00 in - - ()
Sea Level Pressure  
Sea Level Pressure 30.05 in    
Wind  
Wind Speed 9 mph (South)    
Max Wind Speed 22 mph    
Max Gust Speed 26 mph    
Visibility 10 miles    
Events      
Averages and records for this station are not official NWS values.
T = Trace of Precipitation, MM = Missing Value Source: NWS Daily Summary

Daily Weather History Graph

Daily Weather History Graph

Search for Another Location

Airport:

Trip Planner

Search our weather history database for the weather conditions in past years. The results will help you decide how hot, cold, wet, or windy it might be!

Date:

Astronomy

Nov. 24, 2012 Rise Set
Actual Time 7:23 AM CST 4:51 PM CST
Civil Twilight 6:52 AM CST 5:22 PM CST
Nautical Twilight 6:18 AM CST 5:57 PM CST
Astronomical Twilight 5:44 AM CST 6:30 PM CST
Moon 2:39 PM CST (11/24) 3:37 AM CST (11/24)
Length of Visible Light 10h 29m
Length of Day
9h 27m
Waxing Gibbous, 87% of the Moon is Illuminated
Nov 24
Waxing Gibbous
Nov 28
Full
Dec 6
Last Quarter
Dec 13
New
Dec 19
First Quarter

Hourly Weather History & Observations

Time (CST) Temp. Windchill Dew Point Humidity Pressure Visibility Wind Dir Wind Speed Gust Speed Precip Events Conditions
12:15 AM 15.8 °F 8.6 °F 8.6 °F 73% 30.34 in 10.0 mi NW 4.6 mph - N/A   Clear
12:35 AM 15.8 °F 8.6 °F 8.6 °F 73% 30.33 in 10.0 mi North 4.6 mph - N/A   Clear
12:55 AM 14.0 °F 5.1 °F 8.6 °F 79% 30.34 in 10.0 mi NNW 5.8 mph - N/A   Clear
1:15 AM 14.0 °F 3.9 °F 8.6 °F 79% 30.32 in 10.0 mi North 6.9 mph - N/A   Clear
1:35 AM 14.0 °F 3.9 °F 8.6 °F 79% 30.31 in 10.0 mi North 6.9 mph - N/A   Clear
1:55 AM 14.0 °F 3.9 °F 8.6 °F 79% 30.30 in 10.0 mi North 6.9 mph - N/A   Clear
2:15 AM 14.0 °F - 8.6 °F 79% 30.31 in 10.0 mi Calm Calm - N/A   Clear
2:35 AM 14.0 °F 6.5 °F 10.4 °F 86% 30.29 in 10.0 mi NE 4.6 mph - N/A   Clear
2:55 AM 14.0 °F - 10.4 °F 86% 30.30 in 10.0 mi Calm Calm - N/A   Clear
3:15 AM 14.0 °F - 10.4 °F 86% 30.29 in 10.0 mi Calm Calm - N/A   Clear
3:55 AM 12.2 °F 4.3 °F 8.6 °F 85% 30.28 in 10.0 mi SSW 4.6 mph - N/A   Partly Cloudy
4:15 AM 14.0 °F 6.5 °F 8.6 °F 79% 30.27 in 10.0 mi South 4.6 mph - N/A   Mostly Cloudy
4:35 AM 15.8 °F - 10.4 °F 79% 30.26 in 10.0 mi Calm Calm - N/A   Overcast
4:55 AM 15.8 °F - 12.2 °F 86% 30.26 in 10.0 mi Calm Calm - N/A   Mostly Cloudy
5:15 AM 17.6 °F - 12.2 °F 79% 30.26 in 10.0 mi Calm Calm - N/A   Scattered Clouds
5:35 AM 17.6 °F 9.3 °F 12.2 °F 79% 30.25 in 10.0 mi ESE 5.8 mph - N/A   Mostly Cloudy
5:55 AM 17.6 °F 9.3 °F 12.2 °F 79% 30.25 in 10.0 mi SE 5.8 mph - N/A   Mostly Cloudy
6:15 AM 17.6 °F 9.3 °F 12.2 °F 79% 30.24 in 10.0 mi SE 5.8 mph - N/A   Partly Cloudy
6:35 AM 17.6 °F 8.2 °F 14.0 °F 86% 30.25 in 10.0 mi SSE 6.9 mph - N/A   Mostly Cloudy
6:55 AM 17.6 °F 7.3 °F 14.0 °F 86% 30.24 in 10.0 mi SSE 8.1 mph - N/A   Overcast
7:15 AM 17.6 °F 8.2 °F 14.0 °F 86% 30.23 in 10.0 mi SE 6.9 mph - N/A   Overcast
7:35 AM 19.4 °F 7.9 °F 14.0 °F 80% 30.22 in 10.0 mi SSE 10.4 mph - N/A   Mostly Cloudy
7:55 AM 19.4 °F 7.9 °F 14.0 °F 80% 30.21 in 10.0 mi SSE 10.4 mph - N/A   Scattered Clouds
8:15 AM 19.4 °F 6.6 °F 14.0 °F 80% 30.20 in 10.0 mi SSE 12.7 mph - N/A   Partly Cloudy
8:35 AM 19.4 °F 6.6 °F 14.0 °F 80% 30.18 in 10.0 mi SE 12.7 mph - N/A   Clear
8:55 AM 19.4 °F 7.2 °F 14.0 °F 80% 30.18 in 10.0 mi SE 11.5 mph - N/A   Clear
9:15 AM 21.2 °F 8.3 °F 14.0 °F 74% 30.17 in 10.0 mi SSE 13.8 mph - N/A   Clear
9:35 AM 21.2 °F 8.3 °F 14.0 °F 74% 30.18 in 10.0 mi SSE 13.8 mph - N/A   Clear
9:55 AM 23.0 °F 10.1 °F 14.0 °F 68% 30.16 in 10.0 mi South 15.0 mph - N/A   Clear
10:15 AM 24.8 °F 11.9 °F 15.8 °F 69% 30.15 in 10.0 mi South 16.1 mph - N/A   Clear
10:35 AM 26.6 °F 14.7 °F 15.8 °F 64% 30.14 in 10.0 mi SSE 15.0 mph - N/A   Partly Cloudy
10:55 AM 28.4 °F 16.6 °F 15.8 °F 59% 30.13 in 10.0 mi South 16.1 mph - N/A   Mostly Cloudy
11:15 AM 30.2 °F 18.5 °F 15.8 °F 55% 30.10 in 10.0 mi SSE 17.3 mph - N/A   Mostly Cloudy
11:35 AM 32.0 °F 21.6 °F 15.8 °F 51% 30.08 in - SSE 15.0 mph - N/A   Mostly Cloudy
11:55 AM 32.0 °F 20.8 °F 15.8 °F 51% 30.06 in 10.0 mi SSE 17.3 mph 23.0 mph N/A   Scattered Clouds
12:15 PM 33.8 °F 22.5 °F 15.8 °F 48% 30.03 in 10.0 mi SSE 19.6 mph - N/A   Clear
12:35 PM 33.8 °F 22.5 °F 15.8 °F 48% 30.00 in 10.0 mi SSE 19.6 mph - N/A   Clear
12:55 PM 35.6 °F 24.2 °F 15.8 °F 44% 29.98 in 10.0 mi South 21.9 mph - N/A   Clear
1:15 PM 35.6 °F 24.8 °F 15.8 °F 44% 29.96 in 10.0 mi South 19.6 mph 25.3 mph N/A   Clear
1:35 PM 37.4 °F 27.2 °F 15.8 °F 41% 29.94 in 10.0 mi SSE 19.6 mph - N/A   Clear
1:55 PM 37.4 °F 26.6 °F 15.8 °F 41% 29.92 in 10.0 mi SSE 21.9 mph - N/A   Clear
2:15 PM 37.4 °F 27.2 °F 15.8 °F 41% 29.91 in 10.0 mi South 19.6 mph 26.5 mph N/A   Partly Cloudy
2:35 PM 37.4 °F 26.6 °F 15.8 °F 41% 29.90 in 10.0 mi South 21.9 mph - N/A   Partly Cloudy
2:55 PM 37.4 °F 27.2 °F 15.8 °F 41% 29.90 in 10.0 mi South 19.6 mph 26.5 mph N/A   Clear
3:15 PM 37.4 °F 27.5 °F 15.8 °F 41% 29.89 in 10.0 mi South 18.4 mph 25.3 mph N/A   Clear
3:35 PM 37.4 °F - 15.8 °F 41% 29.89 in 10.0 mi North - - N/A   Clear
3:55 PM 37.4 °F - 15.8 °F 41% 29.88 in 10.0 mi North - - N/A   Clear
4:15 PM 35.6 °F 25.5 °F 15.8 °F 44% 29.88 in 10.0 mi SSW 17.3 mph 23.0 mph N/A   Clear
4:35 PM 35.6 °F 25.9 °F 15.8 °F 44% 29.87 in 10.0 mi South 16.1 mph - N/A   Clear
4:55 PM 35.6 °F 26.2 °F 15.8 °F 44% 29.88 in 10.0 mi SSW 15.0 mph - N/A   Clear
5:15 PM 35.6 °F 27.1 °F 15.8 °F 44% 29.87 in 10.0 mi SSW 12.7 mph - N/A   Clear
5:35 PM 33.8 °F 24.3 °F 15.8 °F 48% 29.86 in 10.0 mi South 13.8 mph - N/A   Clear
5:55 PM 33.8 °F 24.8 °F 15.8 °F 48% 29.86 in 10.0 mi South 12.7 mph - N/A   Mostly Cloudy
6:15 PM 33.8 °F 24.8 °F 15.8 °F 48% 29.85 in 10.0 mi South 12.7 mph - N/A   Mostly Cloudy
6:35 PM 32.0 °F 23.0 °F 17.6 °F 55% 29.85 in 10.0 mi South 11.5 mph - N/A   Overcast
6:55 PM 32.0 °F 22.5 °F 17.6 °F 55% 29.84 in 10.0 mi South 12.7 mph - N/A   Scattered Clouds
7:15 PM 33.8 °F 25.3 °F 17.6 °F 52% 29.84 in 10.0 mi South 11.5 mph - N/A   Mostly Cloudy
7:35 PM 33.8 °F 25.8 °F 17.6 °F 52% 29.84 in 10.0 mi South 10.4 mph - N/A   Mostly Cloudy
7:55 PM 33.8 °F 26.4 °F 17.6 °F 52% 29.84 in 10.0 mi SSW 9.2 mph - N/A   Mostly Cloudy
8:15 PM 33.8 °F 25.3 °F 19.4 °F 56% 29.82 in 10.0 mi SSW 11.5 mph - N/A   Mostly Cloudy
8:35 PM 33.8 °F 25.3 °F 19.4 °F 56% 29.81 in - SSW 11.5 mph - N/A   Mostly Cloudy
8:55 PM 35.6 °F 27.1 °F 19.4 °F 52% 29.81 in 10.0 mi SSW 12.7 mph - N/A   Overcast
9:15 PM 35.6 °F 27.5 °F 19.4 °F 52% 29.82 in 10.0 mi SW 11.5 mph - N/A   Overcast
9:35 PM 35.6 °F 27.5 °F 19.4 °F 52% 29.82 in 10.0 mi WSW 11.5 mph - N/A   Mostly Cloudy
9:55 PM 35.6 °F 27.5 °F 19.4 °F 52% 29.82 in 10.0 mi WSW 11.5 mph - N/A   Mostly Cloudy
10:15 PM 37.4 °F 29.3 °F 21.2 °F 52% 29.82 in 10.0 mi WSW 12.7 mph - N/A   Partly Cloudy
10:35 PM 35.6 °F 29.9 °F 21.2 °F 56% 29.82 in 10.0 mi WSW 6.9 mph - N/A   Clear
10:55 PM 35.6 °F 28.6 °F 21.2 °F 56% 29.81 in 10.0 mi West 9.2 mph - N/A   Scattered Clouds
11:15 PM 37.4 °F 28.9 °F 21.2 °F 52% 29.82 in 10.0 mi West 13.8 mph - N/A   Partly Cloudy
11:35 PM 37.4 °F 29.3 °F 21.2 °F 52% 29.82 in 10.0 mi West 12.7 mph - N/A   Mostly Cloudy
11:55 PM 37.4 °F 29.8 °F 21.2 °F 52% 29.83 in 10.0 mi West 11.5 mph - N/A   Overcast